Time,TemperatureF,DewpointF,PressureIn,WindDirection,WindDirectionDegrees,WindSpeedMPH,WindSpeedGustMPH,Humidity,HourlyPrecipIn,Conditions,Clouds,dailyrainin,SoftwareType,DateUTC
2013-03-17 10:04:00,28.8,20.5,30.13,West,281,0.0,0.0,71,-99.99,,,-99.99,VWS V14.01,2013-03-17 14:04:00,
2013-03-17 10:05:00,28.8,20.5,30.13,West,281,0.0,0.0,71,-99.99,,,-99.99,VWS V14.01,2013-03-17 14:05:00,
2013-03-17 10:10:00,28.9,20.7,30.13,West,281,0.0,0.0,71,-99.99,,,-99.99,VWS V14.01,2013-03-17 14:10:00,
2013-03-17 10:15:00,29.0,20.7,30.14,West,281,0.0,0.0,71,-99.99,,,-99.99,VWS V14.01,2013-03-17 14:15:00,
2013-03-17 10:20:00,29.0,20.6,30.14,West,281,0.0,0.0,70,-99.99,,,-99.99,VWS V14.01,2013-03-17 14:20:00,
2013-03-17 10:25:00,29.0,20.5,30.14,SW,221,0.0,0.0,70,-99.99,,,-99.99,VWS V14.01,2013-03-17 14:25:00,
2013-03-17 10:30:00,29.1,20.8,30.14,SW,221,0.0,0.0,71,-99.99,,,-99.99,VWS V14.01,2013-03-17 14:30:00,
2013-03-17 10:35:00,29.3,20.7,30.15,SW,221,0.0,0.0,70,-99.99,,,-99.99,VWS V14.01,2013-03-17 14:35:00,
2013-03-17 10:40:00,29.6,21.2,30.14,SW,221,0.0,0.0,70,-99.99,,,-99.99,VWS V14.01,2013-03-17 14:40:00,
2013-03-17 10:45:00,29.8,21.2,30.15,SW,221,0.0,0.0,70,-99.99,,,-99.99,VWS V14.01,2013-03-17 14:45:00,
2013-03-17 10:50:00,30.0,20.7,30.15,SW,221,0.0,0.0,68,-99.99,,,-99.99,VWS V14.01,2013-03-17 14:50:00,
2013-03-17 10:55:00,30.2,20.6,30.15,SW,221,0.0,0.0,67,-99.99,,,-99.99,VWS V14.01,2013-03-17 14:55:00,
2013-03-17 11:00:00,30.5,21.3,30.15,SW,221,0.0,0.0,68,-99.99,,,-99.99,VWS V14.01,2013-03-17 15:00:00,
2013-03-17 11:05:00,30.7,21.2,30.15,SW,221,0.0,0.0,67,-99.99,,,-99.99,VWS V14.01,2013-03-17 15:05:00,
2013-03-17 11:10:00,30.9,21.2,30.15,SW,221,0.0,0.0,67,-99.99,,,-99.99,VWS V14.01,2013-03-17 15:10:00,
2013-03-17 11:15:00,31.0,21.2,30.15,SW,221,0.0,0.0,67,-99.99,,,-99.99,VWS V14.01,2013-03-17 15:15:00,
2013-03-17 11:20:00,31.1,20.4,30.16,WNW,301,0.0,0.0,64,-99.99,,,-99.99,VWS V14.01,2013-03-17 15:20:00,
2013-03-17 11:25:00,31.1,20.3,30.16,WNW,301,0.0,0.0,64,-99.99,,,-99.99,VWS V14.01,2013-03-17 15:25:00,
2013-03-17 11:30:00,31.2,19.7,30.16,WNW,301,0.0,0.0,62,-99.99,,,-99.99,VWS V14.01,2013-03-17 15:30:00,
2013-03-17 11:35:00,31.5,20.3,30.16,WNW,301,0.0,0.0,63,-99.99,,,-99.99,VWS V14.01,2013-03-17 15:35:00,
2013-03-17 11:40:00,31.8,19.9,30.16,WNW,301,0.0,0.0,61,-99.99,,,-99.99,VWS V14.01,2013-03-17 15:40:00,
2013-03-17 11:45:00,31.6,19.7,30.16,North,357,0.0,8.5,61,-99.99,,,-99.99,VWS V14.01,2013-03-17 15:45:00,
2013-03-17 11:50:00,31.4,19.6,30.16,WNW,284,0.0,0.0,61,-99.99,,,-99.99,VWS V14.01,2013-03-17 15:50:00,
2013-03-17 11:55:00,31.4,20.0,30.15,WNW,284,0.0,0.0,62,-99.99,,,-99.99,VWS V14.01,2013-03-17 15:55:00,
2013-03-17 12:00:00,31.4,20.2,30.16,ESE,115,0.0,0.0,63,-99.99,,,-99.99,VWS V14.01,2013-03-17 16:00:00,
2013-03-17 12:05:00,31.6,20.9,30.16,ESE,115,0.0,0.0,64,-99.99,,,-99.99,VWS V14.01,2013-03-17 16:05:00,
2013-03-17 12:10:00,31.6,20.4,30.16,ESE,115,0.0,0.0,63,-99.99,,,-99.99,VWS V14.01,2013-03-17 16:10:00,
2013-03-17 12:14:00,31.7,20.9,30.16,WNW,290,0.0,0.0,64,-99.99,,,-99.99,VWS V14.01,2013-03-17 16:14:00,
2013-03-17 12:19:00,31.9,20.8,30.16,WNW,290,0.0,0.0,63,-99.99,,,-99.99,VWS V14.01,2013-03-17 16:19:00,
2013-03-17 12:24:00,31.7,20.3,30.16,West,259,0.0,0.0,62,-99.99,,,-99.99,VWS V14.01,2013-03-17 16:24:00,
2013-03-17 12:29:00,31.8,21.0,30.16,West,259,0.0,0.0,64,-99.99,,,-99.99,VWS V14.01,2013-03-17 16:29:00,
2013-03-17 12:34:00,31.9,20.8,30.16,West,259,0.0,0.0,63,-99.99,,,-99.99,VWS V14.01,2013-03-17 16:34:00,
2013-03-17 12:39:00,32.0,20.5,30.16,WSW,242,0.0,4.3,62,-99.99,,,-99.99,VWS V14.01,2013-03-17 16:39:00,
2013-03-17 12:44:00,32.1,20.8,30.16,WSW,242,0.0,0.0,63,-99.99,,,-99.99,VWS V14.01,2013-03-17 16:44:00,
2013-03-17 12:49:00,32.3,21.0,30.16,WNW,301,0.0,0.0,63,-99.99,,,-99.99,VWS V14.01,2013-03-17 16:49:00,
2013-03-17 12:54:00,32.5,20.5,30.16,WSW,250,0.0,0.0,61,-99.99,,,-99.99,VWS V14.01,2013-03-17 16:54:00,
2013-03-17 12:59:00,32.6,20.6,30.15,WSW,250,0.0,0.0,61,-99.99,,,-99.99,VWS V14.01,2013-03-17 16:59:00,
2013-03-17 13:04:00,32.8,21.0,30.16,NW,319,0.0,7.5,61,-99.99,,,-99.99,VWS V14.01,2013-03-17 17:04:00,
2013-03-17 13:09:00,33.1,20.6,30.16,West,267,4.9,6.5,60,-99.99,,,-99.99,VWS V14.01,2013-03-17 17:09:00,
2013-03-17 13:14:00,33.0,20.8,30.16,West,278,0.0,6.0,60,-99.99,,,-99.99,VWS V14.01,2013-03-17 17:14:00,
2013-03-17 13:19:00,33.1,21.1,30.16,West,278,0.0,4.2,61,-99.99,,,-99.99,VWS V14.01,2013-03-17 17:19:00,
2013-03-17 13:24:00,33.3,21.1,30.15,WNW,294,0.0,0.0,60,-99.99,,,-99.99,VWS V14.01,2013-03-17 17:24:00,
2013-03-17 13:29:00,33.3,20.7,30.15,WNW,294,0.0,0.0,59,-99.99,,,-99.99,VWS V14.01,2013-03-17 17:29:00,
2013-03-17 13:34:00,33.3,21.0,30.15,West,270,0.0,0.0,60,-99.99,,,-99.99,VWS V14.01,2013-03-17 17:34:00,
2013-03-17 13:39:00,33.2,20.6,30.15,NW,312,0.0,6.6,59,-99.99,,,-99.99,VWS V14.01,2013-03-17 17:39:00,
2013-03-17 13:44:00,33.0,20.5,30.15,NW,318,0.0,2.2,60,-99.99,,,-99.99,VWS V14.01,2013-03-17 17:44:00,
2013-03-17 13:49:00,33.0,21.3,30.15,WNW,294,0.0,0.0,62,-99.99,,,-99.99,VWS V14.01,2013-03-17 17:49:00,
2013-03-17 13:54:00,33.1,21.5,30.15,WNW,294,0.0,0.0,62,-99.99,,,-99.99,VWS V14.01,2013-03-17 17:54:00,
2013-03-17 13:59:00,33.3,21.5,30.15,WNW,294,0.0,0.0,61,-99.99,,,-99.99,VWS V14.01,2013-03-17 17:59:00,
2013-03-17 14:04:00,33.0,20.7,30.15,West,277,0.0,0.0,60,-99.99,,,-99.99,VWS V14.01,2013-03-17 18:04:00,
2013-03-17 14:09:00,33.1,20.9,30.15,West,277,0.0,0.0,60,-99.99,,,-99.99,VWS V14.01,2013-03-17 18:09:00,
2013-03-17 14:14:00,33.2,21.0,30.15,West,277,0.0,0.0,60,-99.99,,,-99.99,VWS V14.01,2013-03-17 18:14:00,
2013-03-17 14:19:00,33.2,21.1,30.15,WNW,302,0.0,0.0,61,-99.99,,,-99.99,VWS V14.01,2013-03-17 18:19:00,
2013-03-17 14:24:00,33.3,21.3,30.15,WNW,302,0.0,0.0,61,-99.99,,,-99.99,VWS V14.01,2013-03-17 18:24:00,
2013-03-17 14:29:00,33.2,21.0,30.15,WSW,245,5.6,5.6,60,-99.99,,,-99.99,VWS V14.01,2013-03-17 18:29:00,
2013-03-17 14:34:00,33.2,21.1,30.15,WSW,243,0.0,0.0,61,-99.99,,,-99.99,VWS V14.01,2013-03-17 18:34:00,
2013-03-17 14:39:00,33.3,21.3,30.15,WSW,243,0.0,0.0,61,-99.99,,,-99.99,VWS V14.01,2013-03-17 18:39:00,
2013-03-17 14:44:00,33.5,21.6,30.15,WSW,243,0.0,0.0,61,-99.99,,,-99.99,VWS V14.01,2013-03-17 18:44:00,
2013-03-17 14:49:00,33.6,21.7,30.15,NW,321,0.0,0.0,61,-99.99,,,-99.99,VWS V14.01,2013-03-17 18:49:00,
2013-03-17 14:54:00,33.8,21.5,30.15,NW,321,0.0,0.0,60,-99.99,,,-99.99,VWS V14.01,2013-03-17 18:54:00,
2013-03-17 14:59:00,33.8,21.5,30.14,NW,321,0.0,0.0,60,-99.99,,,-99.99,VWS V14.01,2013-03-17 18:59:00,
2013-03-17 15:04:00,33.8,21.3,30.15,North,359,0.0,0.0,60,-99.99,,,-99.99,VWS V14.01,2013-03-17 19:04:00,
2013-03-17 15:09:00,33.7,21.5,30.15,West,262,0.0,0.0,60,-99.99,,,-99.99,VWS V14.01,2013-03-17 19:09:00,
2013-03-17 15:14:00,33.8,21.7,30.15,West,262,0.0,0.0,61,-99.99,,,-99.99,VWS V14.01,2013-03-17 19:14:00,
2013-03-17 15:19:00,33.7,21.5,30.14,NW,309,0.0,0.0,61,-99.99,,,-99.99,VWS V14.01,2013-03-17 19:19:00,
2013-03-17 15:24:00,33.7,21.3,30.15,NW,309,0.0,0.0,60,-99.99,,,-99.99,VWS V14.01,2013-03-17 19:24:00,
2013-03-17 15:29:00,33.9,21.7,30.15,NW,326,0.0,0.0,61,-99.99,,,-99.99,VWS V14.01,2013-03-17 19:29:00,
2013-03-17 15:34:00,33.9,21.2,30.15,NW,307,0.0,0.0,59,-99.99,,,-99.99,VWS V14.01,2013-03-17 19:34:00,
2013-03-17 15:39:00,33.9,21.5,30.15,NW,307,0.0,0.0,60,-99.99,,,-99.99,VWS V14.01,2013-03-17 19:39:00,
2013-03-17 15:44:00,34.2,21.9,30.15,NW,319,0.0,0.0,60,-99.99,,,-99.99,VWS V14.01,2013-03-17 19:44:00,
2013-03-17 15:49:00,34.4,22.0,30.15,WSW,239,0.0,2.9,60,-99.99,,,-99.99,VWS V14.01,2013-03-17 19:49:00,
2013-03-17 15:54:00,34.4,21.8,30.15,WSW,239,0.0,0.0,60,-99.99,,,-99.99,VWS V14.01,2013-03-17 19:54:00,
2013-03-17 15:59:00,34.5,22.1,30.15,WSW,239,0.0,0.0,60,-99.99,,,-99.99,VWS V14.01,2013-03-17 19:59:00,
2013-03-17 16:04:00,34.4,21.5,30.15,SW,226,0.0,0.0,59,-99.99,,,-99.99,VWS V14.01,2013-03-17 20:04:00,
2013-03-17 16:09:00,34.4,21.6,30.15,SW,226,0.0,0.0,59,-99.99,,,-99.99,VWS V14.01,2013-03-17 20:09:00,
2013-03-17 16:14:00,34.5,22.2,30.15,West,274,3.4,4.3,60,-99.99,,,-99.99,VWS V14.01,2013-03-17 20:14:00,
2013-03-17 16:19:00,34.4,21.5,30.15,North,352,0.0,0.0,59,-99.99,,,-99.99,VWS V14.01,2013-03-17 20:19:00,
2013-03-17 16:24:00,34.4,21.9,30.15,North,352,0.0,0.0,60,-99.99,,,-99.99,VWS V14.01,2013-03-17 20:24:00,
2013-03-17 16:29:00,34.4,21.5,30.15,North,352,0.0,0.0,59,-99.99,,,-99.99,VWS V14.01,2013-03-17 20:29:00,
2013-03-17 16:34:00,34.3,21.4,30.15,North,352,0.0,0.0,59,-99.99,,,-99.99,VWS V14.01,2013-03-17 20:34:00,
2013-03-17 16:39:00,34.5,21.8,30.15,North,352,0.0,0.0,59,-99.99,,,-99.99,VWS V14.01,2013-03-17 20:39:00,
2013-03-17 16:44:00,34.5,21.6,30.15,NW,322,0.0,0.0,59,-99.99,,,-99.99,VWS V14.01,2013-03-17 20:44:00,
2013-03-17 16:49:00,34.6,21.6,30.15,NW,322,0.0,0.0,59,-99.99,,,-99.99,VWS V14.01,2013-03-17 20:49:00,
2013-03-17 16:54:00,34.6,21.9,30.15,NW,322,0.0,0.0,59,-99.99,,,-99.99,VWS V14.01,2013-03-17 20:54:00,
2013-03-17 16:59:00,34.7,22.1,30.15,NW,322,0.0,0.0,60,-99.99,,,-99.99,VWS V14.01,2013-03-17 20:59:00,
2013-03-17 17:04:00,34.8,22.1,30.15,NW,322,0.0,0.0,59,-99.99,,,-99.99,VWS V14.01,2013-03-17 21:04:00,
2013-03-17 17:09:00,34.8,21.9,30.15,NW,322,0.0,0.0,59,-99.99,,,-99.99,VWS V14.01,2013-03-17 21:09:00,
2013-03-17 17:14:00,34.7,21.7,30.15,NW,322,0.0,0.0,59,-99.99,,,-99.99,VWS V14.01,2013-03-17 21:14:00,
2013-03-17 17:19:00,34.7,22.2,30.15,NW,322,0.0,0.0,60,-99.99,,,-99.99,VWS V14.01,2013-03-17 21:19:00,
2013-03-17 17:24:00,34.7,22.0,30.16,North,3,0.0,0.0,59,-99.99,,,-99.99,VWS V14.01,2013-03-17 21:24:00,
2013-03-17 17:29:00,34.8,22.0,30.16,North,3,0.0,0.0,59,-99.99,,,-99.99,VWS V14.01,2013-03-17 21:29:00,
2013-03-17 17:34:00,34.9,22.3,30.16,North,3,0.0,0.0,60,-99.99,,,-99.99,VWS V14.01,2013-03-17 21:34:00,
2013-03-17 17:39:00,34.9,21.5,30.16,North,3,0.0,0.0,58,-99.99,,,-99.99,VWS V14.01,2013-03-17 21:39:00,
2013-03-17 17:44:00,34.8,21.6,30.15,North,3,0.0,0.0,58,-99.99,,,-99.99,VWS V14.01,2013-03-17 21:44:00,
2013-03-17 17:49:00,34.8,21.8,30.16,North,3,0.0,0.0,59,-99.99,,,-99.99,VWS V14.01,2013-03-17 21:49:00,
2013-03-17 17:54:00,34.6,21.3,30.16,North,3,0.0,0.0,58,-99.99,,,-99.99,VWS V14.01,2013-03-17 21:54:00,
2013-03-17 17:59:00,34.5,21.6,30.16,North,3,0.0,0.0,59,-99.99,,,-99.99,VWS V14.01,2013-03-17 21:59:00,
2013-03-17 18:04:00,34.5,21.6,30.16,North,3,0.0,0.0,59,-99.99,,,-99.99,VWS V14.01,2013-03-17 22:04:00,
2013-03-17 18:09:00,34.7,21.9,30.16,North,3,0.0,0.0,59,-99.99,,,-99.99,VWS V14.01,2013-03-17 22:09:00,
2013-03-17 18:14:00,34.9,22.0,30.16,North,3,0.0,0.0,59,-99.99,,,-99.99,VWS V14.01,2013-03-17 22:14:00,
2013-03-17 18:19:00,34.7,22.1,30.16,North,3,0.0,0.0,60,-99.99,,,-99.99,VWS V14.01,2013-03-17 22:19:00,
2013-03-17 18:24:00,34.8,21.7,30.16,North,3,0.0,0.0,58,-99.99,,,-99.99,VWS V14.01,2013-03-17 22:24:00,
2013-03-17 18:29:00,34.7,21.5,30.16,North,3,0.0,0.0,58,-99.99,,,-99.99,VWS V14.01,2013-03-17 22:29:00,
2013-03-17 18:34:00,34.6,21.5,30.16,North,3,0.0,0.0,58,-99.99,,,-99.99,VWS V14.01,2013-03-17 22:34:00,
2013-03-17 18:39:00,34.6,21.3,30.16,North,3,0.0,0.0,58,-99.99,,,-99.99,VWS V14.01,2013-03-17 22:39:00,
2013-03-17 18:44:00,34.4,21.5,30.17,North,3,0.0,0.0,59,-99.99,,,-99.99,VWS V14.01,2013-03-17 22:44:00,
2013-03-17 18:49:00,34.3,21.3,30.16,North,3,0.0,0.0,59,-99.99,,,-99.99,VWS V14.01,2013-03-17 22:49:00,
2013-03-17 18:54:00,34.2,21.3,30.16,North,3,0.0,0.0,59,-99.99,,,-99.99,VWS V14.01,2013-03-17 22:54:00,
2013-03-17 18:59:00,34.1,21.1,30.16,North,3,0.0,0.0,59,-99.99,,,-99.99,VWS V14.01,2013-03-17 22:59:00,
2013-03-17 19:04:00,34.0,21.4,30.17,SE,143,0.0,0.0,60,-99.99,,,-99.99,VWS V14.01,2013-03-17 23:04:00,
2013-03-17 19:09:00,33.9,21.5,30.17,SE,143,0.0,0.0,60,-99.99,,,-99.99,VWS V14.01,2013-03-17 23:09:00,
2013-03-17 19:13:00,33.9,21.6,30.17,SE,143,0.0,0.0,60,-99.99,,,-99.99,VWS V14.01,2013-03-17 23:13:00,
2013-03-17 19:18:00,33.9,21.7,30.17,SE,143,0.0,0.0,60,-99.99,,,-99.99,VWS V14.01,2013-03-17 23:18:00,
2013-03-17 19:24:00,33.7,21.4,30.17,SE,143,0.0,0.0,60,-99.99,,,-99.99,VWS V14.01,2013-03-17 23:24:00,
2013-03-17 19:29:00,33.6,21.4,30.18,SE,143,0.0,0.0,60,-99.99,,,-99.99,VWS V14.01,2013-03-17 23:29:00,
2013-03-17 19:34:00,33.6,21.7,30.18,SE,143,0.0,0.0,61,-99.99,,,-99.99,VWS V14.01,2013-03-17 23:34:00,
2013-03-17 19:38:00,33.6,21.8,30.18,SE,143,0.0,0.0,62,-99.99,,,-99.99,VWS V14.01,2013-03-17 23:38:00,
2013-03-17 19:43:00,33.6,21.8,30.18,SE,143,0.0,0.0,62,-99.99,,,-99.99,VWS V14.01,2013-03-17 23:43:00,
2013-03-17 19:48:00,33.5,21.4,30.18,SE,143,0.0,0.0,61,-99.99,,,-99.99,VWS V14.01,2013-03-17 23:48:00,
2013-03-17 19:53:00,33.4,21.4,30.18,SE,143,0.0,0.0,61,-99.99,,,-99.99,VWS V14.01,2013-03-17 23:53:00,
2013-03-17 19:58:00,33.3,21.3,30.18,SE,143,0.0,0.0,61,-99.99,,,-99.99,VWS V14.01,2013-03-17 23:58:00,
2013-03-17 20:04:00,33.2,21.2,30.18,SE,143,0.0,0.0,61,-99.99,,,-99.99,VWS V14.01,2013-03-18 00:04:00,
2013-03-17 20:09:00,33.1,21.4,30.18,SE,143,0.0,0.0,62,-99.99,,,-99.99,VWS V14.01,2013-03-18 00:09:00,
2013-03-17 20:14:00,33.1,21.4,30.19,SE,143,0.0,0.0,62,-99.99,,,-99.99,VWS V14.01,2013-03-18 00:14:00,
2013-03-17 20:18:00,33.0,21.5,30.19,SE,143,0.0,0.0,62,-99.99,,,-99.99,VWS V14.01,2013-03-18 00:18:00,
2013-03-17 20:23:00,32.9,21.7,30.19,SE,143,0.0,0.0,63,-99.99,,,-99.99,VWS V14.01,2013-03-18 00:23:00,
2013-03-17 20:28:00,32.8,21.8,30.19,SE,143,0.0,0.0,64,-99.99,,,-99.99,VWS V14.01,2013-03-18 00:28:00,
2013-03-17 20:33:00,32.7,21.9,30.19,SE,143,0.0,0.0,64,-99.99,,,-99.99,VWS V14.01,2013-03-18 00:33:00,
2013-03-17 20:38:00,32.6,21.9,30.19,SE,143,0.0,0.0,64,-99.99,,,-99.99,VWS V14.01,2013-03-18 00:38:00,
2013-03-17 20:43:00,32.6,22.0,30.19,SE,143,0.0,0.0,65,-99.99,,,-99.99,VWS V14.01,2013-03-18 00:43:00,
2013-03-17 20:48:00,32.6,22.0,30.19,SE,143,0.0,0.0,65,-99.99,,,-99.99,VWS V14.01,2013-03-18 00:48:00,
2013-03-17 20:53:00,32.5,22.1,30.19,SE,143,0.0,0.0,65,-99.99,,,-99.99,VWS V14.01,2013-03-18 00:53:00,
2013-03-17 20:58:00,32.4,22.1,30.19,SE,143,0.0,0.0,65,-99.99,,,-99.99,VWS V14.01,2013-03-18 00:58:00,
2013-03-17 21:03:00,32.2,21.7,30.20,East,87,0.0,0.0,65,-99.99,,,-99.99,VWS V14.01,2013-03-18 01:03:00,
2013-03-17 21:08:00,32.0,21.4,30.20,SE,138,0.0,0.0,65,-99.99,,,-99.99,VWS V14.01,2013-03-18 01:08:00,
2013-03-17 21:13:00,31.9,21.5,30.20,SE,138,0.0,0.0,65,-99.99,,,-99.99,VWS V14.01,2013-03-18 01:13:00,
2013-03-17 21:18:00,31.8,21.3,30.19,SE,135,0.0,0.0,65,-99.99,,,-99.99,VWS V14.01,2013-03-18 01:18:00,
2013-03-17 21:23:00,31.7,21.2,30.19,ESE,104,0.0,0.0,65,-99.99,,,-99.99,VWS V14.01,2013-03-18 01:23:00,
2013-03-17 21:28:00,31.7,21.2,30.19,ESE,104,0.0,0.0,65,-99.99,,,-99.99,VWS V14.01,2013-03-18 01:28:00,
2013-03-17 21:33:00,31.6,21.2,30.19,ENE,65,0.0,0.0,65,-99.99,,,-99.99,VWS V14.01,2013-03-18 01:33:00,
2013-03-17 21:38:00,31.5,21.2,30.19,ENE,73,0.0,0.0,65,-99.99,,,-99.99,VWS V14.01,2013-03-18 01:38:00,
2013-03-17 21:43:00,31.4,21.2,30.19,SE,127,0.0,0.0,65,-99.99,,,-99.99,VWS V14.01,2013-03-18 01:43:00,
2013-03-17 21:48:00,31.3,21.1,30.19,SE,134,0.0,7.0,66,-99.99,,,-99.99,VWS V14.01,2013-03-18 01:48:00,
2013-03-17 21:53:00,31.2,21.1,30.19,ESE,121,0.0,0.0,66,-99.99,,,-99.99,VWS V14.01,2013-03-18 01:53:00,
2013-03-17 21:58:00,31.2,21.2,30.19,ESE,121,0.0,0.0,66,-99.99,,,-99.99,VWS V14.01,2013-03-18 01:58:00,
2013-03-17 22:03:00,31.2,21.2,30.20,ESE,121,0.0,0.0,66,-99.99,,,-99.99,VWS V14.01,2013-03-18 02:03:00,
2013-03-17 22:08:00,31.1,21.2,30.20,ESE,122,0.0,0.0,66,-99.99,,,-99.99,VWS V14.01,2013-03-18 02:08:00,